sensor_id;sensor_type;location;lat;lon;timestamp;pressure;altitude;pressure_sealevel;temperature;humidity
11444;BME280;5778;47.856;12.154;2023-07-13T00:01:52;96324.03;;;18.93;100.00
11444;BME280;5778;47.856;12.154;2023-07-13T00:04:20;96312.84;;;18.86;100.00
11444;BME280;5778;47.856;12.154;2023-07-13T00:06:49;96305.56;;;18.87;100.00
11444;BME280;5778;47.856;12.154;2023-07-13T00:09:18;96303.72;;;18.74;100.00
11444;BME280;5778;47.856;12.154;2023-07-13T00:11:50;96294.53;;;18.75;100.00
11444;BME280;5778;47.856;12.154;2023-07-13T00:14:18;96281.66;;;18.72;100.00
11444;BME280;5778;47.856;12.154;2023-07-13T00:16:45;96258.03;;;18.69;100.00
11444;BME280;5778;47.856;12.154;2023-07-13T00:19:13;96254.66;;;18.63;100.00
11444;BME280;5778;47.856;12.154;2023-07-13T00:21:41;96256.94;;;18.70;100.00
11444;BME280;5778;47.856;12.154;2023-07-13T00:24:11;96249.16;;;18.68;100.00
11444;BME280;5778;47.856;12.154;2023-07-13T00:26:39;96251.13;;;18.76;100.00
11444;BME280;5778;47.856;12.154;2023-07-13T00:29:06;96263.31;;;18.96;100.00
11444;BME280;5778;47.856;12.154;2023-07-13T00:31:34;96258.06;;;19.13;100.00
11444;BME280;5778;47.856;12.154;2023-07-13T00:34:03;96258.66;;;19.10;100.00
11444;BME280;5778;47.856;12.154;2023-07-13T00:36:31;96268.44;;;19.06;100.00
11444;BME280;5778;47.856;12.154;2023-07-13T00:38:58;96268.78;;;19.04;100.00
11444;BME280;5778;47.856;12.154;2023-07-13T00:41:27;96264.19;;;19.27;100.00
11444;BME280;5778;47.856;12.154;2023-07-13T00:43:53;96262.47;;;19.09;100.00
11444;BME280;5778;47.856;12.154;2023-07-13T00:46:26;96260.13;;;19.16;100.00
11444;BME280;5778;47.856;12.154;2023-07-13T00:48:56;96254.00;;;19.02;100.00
11444;BME280;5778;47.856;12.154;2023-07-13T00:51:28;96248.28;;;19.03;100.00
11444;BME280;5778;47.856;12.154;2023-07-13T00:53:59;96249.84;;;18.96;100.00
11444;BME280;5778;47.856;12.154;2023-07-13T00:56:29;96248.13;;;19.00;100.00
11444;BME280;5778;47.856;12.154;2023-07-13T00:58:59;96247.22;;;19.04;100.00
11444;BME280;5778;47.856;12.154;2023-07-13T01:01:27;96250.56;;;19.10;100.00
11444;BME280;5778;47.856;12.154;2023-07-13T01:03:54;96250.03;;;18.99;100.00
11444;BME280;5778;47.856;12.154;2023-07-13T01:06:22;96251.97;;;19.07;100.00
11444;BME280;5778;47.856;12.154;2023-07-13T01:08:49;96252.91;;;19.03;100.00
11444;BME280;5778;47.856;12.154;2023-07-13T01:11:18;96258.25;;;18.94;100.00
11444;BME280;5778;47.856;12.154;2023-07-13T01:13:48;96262.34;;;18.92;100.00
11444;BME280;5778;47.856;12.154;2023-07-13T01:16:22;96278.63;;;18.87;100.00
11444;BME280;5778;47.856;12.154;2023-07-13T01:18:50;96284.72;;;18.79;100.00
11444;BME280;5778;47.856;12.154;2023-07-13T01:21:19;96280.88;;;18.71;100.00
11444;BME280;5778;47.856;12.154;2023-07-13T01:23:45;96291.66;;;18.71;100.00
11444;BME280;5778;47.856;12.154;2023-07-13T01:26:13;96289.75;;;18.72;100.00
11444;BME280;5778;47.856;12.154;2023-07-13T01:28:40;96290.47;;;18.64;100.00
11444;BME280;5778;47.856;12.154;2023-07-13T01:31:07;96289.38;;;18.65;100.00
11444;BME280;5778;47.856;12.154;2023-07-13T01:33:36;96296.63;;;18.64;100.00
11444;BME280;5778;47.856;12.154;2023-07-13T01:36:03;96288.38;;;18.61;100.00
11444;BME280;5778;47.856;12.154;2023-07-13T01:38:33;96287.56;;;18.74;100.00
11444;BME280;5778;47.856;12.154;2023-07-13T01:41:00;96298.34;;;18.74;100.00
11444;BME280;5778;47.856;12.154;2023-07-13T01:43:27;96281.97;;;18.70;100.00
11444;BME280;5778;47.856;12.154;2023-07-13T01:45:54;96286.19;;;18.63;100.00
11444;BME280;5778;47.856;12.154;2023-07-13T01:48:22;96283.34;;;18.68;100.00
11444;BME280;5778;47.856;12.154;2023-07-13T01:50:49;96281.78;;;18.67;100.00
11444;BME280;5778;47.856;12.154;2023-07-13T01:53:16;96280.44;;;18.78;100.00
11444;BME280;5778;47.856;12.154;2023-07-13T01:55:45;96279.84;;;18.81;100.00
11444;BME280;5778;47.856;12.154;2023-07-13T01:58:12;96283.25;;;18.73;100.00
11444;BME280;5778;47.856;12.154;2023-07-13T02:00:38;96291.34;;;18.59;100.00
11444;BME280;5778;47.856;12.154;2023-07-13T02:03:05;96286.78;;;18.60;100.00
11444;BME280;5778;47.856;12.154;2023-07-13T02:05:32;96285.59;;;18.52;100.00
11444;BME280;5778;47.856;12.154;2023-07-13T02:07:59;96284.28;;;18.63;100.00
11444;BME280;5778;47.856;12.154;2023-07-13T02:10:26;96288.19;;;18.57;100.00
11444;BME280;5778;47.856;12.154;2023-07-13T02:12:55;96293.00;;;18.47;100.00
11444;BME280;5778;47.856;12.154;2023-07-13T02:15:22;96293.19;;;18.50;100.00
11444;BME280;5778;47.856;12.154;2023-07-13T02:17:49;96293.34;;;18.67;100.00
11444;BME280;5778;47.856;12.154;2023-07-13T02:20:16;96293.09;;;18.55;100.00
11444;BME280;5778;47.856;12.154;2023-07-13T02:22:43;96302.06;;;18.51;100.00
11444;BME280;5778;47.856;12.154;2023-07-13T02:25:10;96298.16;;;18.57;100.00
11444;BME280;5778;47.856;12.154;2023-07-13T02:27:37;96296.94;;;18.76;100.00
11444;BME280;5778;47.856;12.154;2023-07-13T02:30:07;96301.84;;;18.61;100.00
11444;BME280;5778;47.856;12.154;2023-07-13T02:32:34;96298.75;;;18.67;100.00
11444;BME280;5778;47.856;12.154;2023-07-13T02:35:01;96299.69;;;18.85;100.00
11444;BME280;5778;47.856;12.154;2023-07-13T02:37:28;96297.94;;;18.67;100.00
11444;BME280;5778;47.856;12.154;2023-07-13T02:39:55;96306.38;;;18.52;100.00
11444;BME280;5778;47.856;12.154;2023-07-13T02:42:22;96315.31;;;18.47;100.00
11444;BME280;5778;47.856;12.154;2023-07-13T02:44:49;96314.13;;;18.53;100.00
11444;BME280;5778;47.856;12.154;2023-07-13T02:47:18;96318.28;;;18.73;100.00
11444;BME280;5778;47.856;12.154;2023-07-13T02:49:45;96313.94;;;18.50;100.00
11444;BME280;5778;47.856;12.154;2023-07-13T02:52:12;96324.75;;;18.72;100.00
11444;BME280;5778;47.856;12.154;2023-07-13T02:54:39;96323.78;;;18.54;100.00
11444;BME280;5778;47.856;12.154;2023-07-13T02:57:07;96328.50;;;18.35;100.00
11444;BME280;5778;47.856;12.154;2023-07-13T02:59:33;96335.38;;;18.28;100.00
11444;BME280;5778;47.856;12.154;2023-07-13T03:02:01;96344.34;;;18.23;100.00
11444;BME280;5778;47.856;12.154;2023-07-13T03:04:30;96337.97;;;18.33;100.00
11444;BME280;5778;47.856;12.154;2023-07-13T03:06:57;96346.63;;;18.30;100.00
11444;BME280;5778;47.856;12.154;2023-07-13T03:09:29;96338.47;;;18.35;100.00
11444;BME280;5778;47.856;12.154;2023-07-13T03:11:59;96342.06;;;18.44;100.00
11444;BME280;5778;47.856;12.154;2023-07-13T03:14:29;96351.25;;;18.43;100.00
11444;BME280;5778;47.856;12.154;2023-07-13T03:16:57;96339.97;;;18.41;100.00
11444;BME280;5778;47.856;12.154;2023-07-13T03:19:27;96347.25;;;18.40;100.00
11444;BME280;5778;47.856;12.154;2023-07-13T03:21:56;96352.63;;;18.27;100.00
11444;BME280;5778;47.856;12.154;2023-07-13T03:24:23;96362.28;;;18.14;100.00
11444;BME280;5778;47.856;12.154;2023-07-13T03:26:51;96358.91;;;18.09;100.00
11444;BME280;5778;47.856;12.154;2023-07-13T03:29:18;96365.69;;;18.06;100.00
11444;BME280;5778;47.856;12.154;2023-07-13T03:31:45;96363.75;;;18.07;100.00
11444;BME280;5778;47.856;12.154;2023-07-13T03:34:13;96367.16;;;18.12;100.00
11444;BME280;5778;47.856;12.154;2023-07-13T03:36:40;96376.34;;;18.11;100.00
11444;BME280;5778;47.856;12.154;2023-07-13T03:39:12;96372.34;;;18.09;100.00
11444;BME280;5778;47.856;12.154;2023-07-13T03:41:57;96384.72;;;18.10;100.00
11444;BME280;5778;47.856;12.154;2023-07-13T03:44:25;96382.31;;;18.08;100.00
11444;BME280;5778;47.856;12.154;2023-07-13T03:46:54;96386.50;;;18.14;100.00
11444;BME280;5778;47.856;12.154;2023-07-13T03:49:22;96388.28;;;18.19;100.00
11444;BME280;5778;47.856;12.154;2023-07-13T03:51:49;96392.09;;;18.18;100.00
11444;BME280;5778;47.856;12.154;2023-07-13T03:54:18;96395.69;;;18.13;100.00
11444;BME280;5778;47.856;12.154;2023-07-13T03:56:44;96402.34;;;18.16;100.00
11444;BME280;5778;47.856;12.154;2023-07-13T03:59:12;96395.38;;;18.15;100.00
11444;BME280;5778;47.856;12.154;2023-07-13T04:01:39;96398.84;;;18.15;100.00
11444;BME280;5778;47.856;12.154;2023-07-13T04:04:06;96401.63;;;18.10;100.00
11444;BME280;5778;47.856;12.154;2023-07-13T04:06:33;96411.81;;;18.00;100.00
11444;BME280;5778;47.856;12.154;2023-07-13T04:09:02;96404.81;;;17.99;100.00
11444;BME280;5778;47.856;12.154;2023-07-13T04:11:32;96408.31;;;17.99;100.00
11444;BME280;5778;47.856;12.154;2023-07-13T04:14:01;96411.22;;;18.03;100.00
11444;BME280;5778;47.856;12.154;2023-07-13T04:16:29;96413.41;;;18.01;100.00
11444;BME280;5778;47.856;12.154;2023-07-13T04:18:56;96423.25;;;18.05;100.00
11444;BME280;5778;47.856;12.154;2023-07-13T04:21:26;96421.38;;;18.06;100.00
11444;BME280;5778;47.856;12.154;2023-07-13T04:23:53;96420.38;;;18.02;100.00
11444;BME280;5778;47.856;12.154;2023-07-13T04:26:20;96423.66;;;17.99;100.00
11444;BME280;5778;47.856;12.154;2023-07-13T04:28:49;96426.34;;;17.99;100.00
11444;BME280;5778;47.856;12.154;2023-07-13T04:31:17;96434.72;;;17.97;100.00
11444;BME280;5778;47.856;12.154;2023-07-13T04:33:44;96433.91;;;17.97;100.00
11444;BME280;5778;47.856;12.154;2023-07-13T04:36:11;96433.25;;;18.05;100.00
11444;BME280;5778;47.856;12.154;2023-07-13T04:38:38;96435.44;;;18.03;100.00
11444;BME280;5778;47.856;12.154;2023-07-13T04:41:07;96439.72;;;18.04;100.00
11444;BME280;5778;47.856;12.154;2023-07-13T04:43:35;96450.59;;;18.12;100.00
11444;BME280;5778;47.856;12.154;2023-07-13T04:46:06;96451.16;;;17.96;100.00
11444;BME280;5778;47.856;12.154;2023-07-13T04:48:33;96454.25;;;17.89;100.00
11444;BME280;5778;47.856;12.154;2023-07-13T04:51:01;96455.09;;;17.85;100.00
11444;BME280;5778;47.856;12.154;2023-07-13T04:53:29;96455.84;;;17.90;100.00
11444;BME280;5778;47.856;12.154;2023-07-13T04:55:57;96452.69;;;17.83;100.00
11444;BME280;5778;47.856;12.154;2023-07-13T04:58:25;96458.44;;;17.95;100.00
11444;BME280;5778;47.856;12.154;2023-07-13T05:00:53;96457.22;;;18.20;100.00
11444;BME280;5778;47.856;12.154;2023-07-13T05:03:21;96457.94;;;18.39;100.00
11444;BME280;5778;47.856;12.154;2023-07-13T05:05:55;96454.78;;;18.50;100.00
11444;BME280;5778;47.856;12.154;2023-07-13T05:08:23;96459.06;;;18.38;100.00
11444;BME280;5778;47.856;12.154;2023-07-13T05:10:50;96467.31;;;18.41;100.00
11444;BME280;5778;47.856;12.154;2023-07-13T05:13:17;96467.31;;;18.41;100.00
11444;BME280;5778;47.856;12.154;2023-07-13T05:15:45;96464.38;;;18.24;100.00
11444;BME280;5778;47.856;12.154;2023-07-13T05:18:12;96461.88;;;18.14;100.00
11444;BME280;5778;47.856;12.154;2023-07-13T05:20:40;96468.09;;;18.28;100.00
11444;BME280;5778;47.856;12.154;2023-07-13T05:23:07;96466.03;;;18.39;100.00
11444;BME280;5778;47.856;12.154;2023-07-13T05:25:34;96474.31;;;18.56;100.00
11444;BME280;5778;47.856;12.154;2023-07-13T05:28:01;96469.72;;;18.43;100.00
11444;BME280;5778;47.856;12.154;2023-07-13T05:30:27;96472.63;;;18.73;100.00
11444;BME280;5778;47.856;12.154;2023-07-13T05:32:54;96472.75;;;18.82;100.00
11444;BME280;5778;47.856;12.154;2023-07-13T05:35:21;96465.75;;;18.81;100.00
11444;BME280;5778;47.856;12.154;2023-07-13T05:37:49;96466.44;;;18.86;100.00
11444;BME280;5778;47.856;12.154;2023-07-13T05:40:16;96480.69;;;19.14;100.00
11444;BME280;5778;47.856;12.154;2023-07-13T05:42:43;96478.13;;;19.09;100.00
11444;BME280;5778;47.856;12.154;2023-07-13T05:45:10;96485.72;;;18.93;100.00
11444;BME280;5778;47.856;12.154;2023-07-13T05:47:37;96489.38;;;18.84;100.00
11444;BME280;5778;47.856;12.154;2023-07-13T05:50:05;96491.00;;;18.58;100.00
11444;BME280;5778;47.856;12.154;2023-07-13T05:52:32;96484.81;;;18.98;100.00
11444;BME280;5778;47.856;12.154;2023-07-13T05:55:00;96490.88;;;19.30;100.00
11444;BME280;5778;47.856;12.154;2023-07-13T05:57:28;96483.75;;;19.48;100.00
11444;BME280;5778;47.856;12.154;2023-07-13T05:59:55;96482.19;;;19.33;100.00
11444;BME280;5778;47.856;12.154;2023-07-13T06:02:22;96498.88;;;19.08;100.00
11444;BME280;5778;47.856;12.154;2023-07-13T06:04:49;96493.28;;;19.05;100.00
11444;BME280;5778;47.856;12.154;2023-07-13T06:07:16;96499.97;;;18.94;100.00
11444;BME280;5778;47.856;12.154;2023-07-13T06:09:43;96498.47;;;18.61;100.00
11444;BME280;5778;47.856;12.154;2023-07-13T06:12:11;96501.88;;;18.93;100.00
11444;BME280;5778;47.856;12.154;2023-07-13T06:14:38;96494.47;;;19.12;100.00
11444;BME280;5778;47.856;12.154;2023-07-13T06:17:05;96481.09;;;19.07;100.00
11444;BME280;5778;47.856;12.154;2023-07-13T06:19:32;96481.94;;;19.21;100.00
11444;BME280;5778;47.856;12.154;2023-07-13T06:21:59;96474.94;;;19.07;100.00
11444;BME280;5778;47.856;12.154;2023-07-13T06:24:26;96472.13;;;19.12;100.00
11444;BME280;5778;47.856;12.154;2023-07-13T06:26:53;96480.59;;;19.19;100.00
11444;BME280;5778;47.856;12.154;2023-07-13T06:29:21;96487.50;;;18.71;100.00
11444;BME280;5778;47.856;12.154;2023-07-13T06:31:48;96494.50;;;18.72;100.00
11444;BME280;5778;47.856;12.154;2023-07-13T06:34:15;96503.63;;;18.44;100.00
11444;BME280;5778;47.856;12.154;2023-07-13T06:36:42;96502.66;;;18.53;100.00
11444;BME280;5778;47.856;12.154;2023-07-13T06:39:09;96511.94;;;18.61;100.00
11444;BME280;5778;47.856;12.154;2023-07-13T06:41:36;96515.56;;;18.83;100.00
11444;BME280;5778;47.856;12.154;2023-07-13T06:44:09;96518.03;;;18.66;100.00
11444;BME280;5778;47.856;12.154;2023-07-13T06:46:37;96519.25;;;18.74;100.00
11444;BME280;5778;47.856;12.154;2023-07-13T06:49:04;96518.81;;;18.67;100.00
11444;BME280;5778;47.856;12.154;2023-07-13T06:51:31;96524.53;;;18.92;100.00
11444;BME280;5778;47.856;12.154;2023-07-13T06:53:58;96515.28;;;18.98;100.00
11444;BME280;5778;47.856;12.154;2023-07-13T06:56:24;96516.44;;;19.06;100.00
11444;BME280;5778;47.856;12.154;2023-07-13T06:58:51;96518.84;;;19.21;100.00
11444;BME280;5778;47.856;12.154;2023-07-13T07:01:18;96509.34;;;19.72;100.00
11444;BME280;5778;47.856;12.154;2023-07-13T07:03:46;96503.78;;;19.69;100.00
11444;BME280;5778;47.856;12.154;2023-07-13T07:06:16;96500.28;;;19.90;100.00
11444;BME280;5778;47.856;12.154;2023-07-13T07:08:43;96507.72;;;19.85;100.00
11444;BME280;5778;47.856;12.154;2023-07-13T07:11:11;96512.38;;;19.93;100.00
11444;BME280;5778;47.856;12.154;2023-07-13T07:13:39;96506.81;;;19.54;100.00
11444;BME280;5778;47.856;12.154;2023-07-13T07:16:06;96519.13;;;19.46;100.00
11444;BME280;5778;47.856;12.154;2023-07-13T07:18:34;96518.66;;;19.31;100.00
11444;BME280;5778;47.856;12.154;2023-07-13T07:21:02;96510.78;;;19.70;100.00
11444;BME280;5778;47.856;12.154;2023-07-13T07:23:29;96510.91;;;19.87;100.00
11444;BME280;5778;47.856;12.154;2023-07-13T07:25:56;96506.44;;;20.04;100.00
11444;BME280;5778;47.856;12.154;2023-07-13T07:28:23;96515.56;;;20.30;100.00
11444;BME280;5778;47.856;12.154;2023-07-13T07:30:52;96517.78;;;19.57;100.00
11444;BME280;5778;47.856;12.154;2023-07-13T07:33:19;96517.75;;;19.71;100.00
11444;BME280;5778;47.856;12.154;2023-07-13T07:35:46;96523.50;;;19.91;100.00
11444;BME280;5778;47.856;12.154;2023-07-13T07:38:15;96518.03;;;19.83;100.00
11444;BME280;5778;47.856;12.154;2023-07-13T07:40:42;96518.41;;;19.90;100.00
11444;BME280;5778;47.856;12.154;2023-07-13T07:43:11;96520.84;;;20.13;100.00
11444;BME280;5778;47.856;12.154;2023-07-13T07:45:38;96517.88;;;20.45;100.00
11444;BME280;5778;47.856;12.154;2023-07-13T07:48:06;96518.13;;;20.66;100.00
11444;BME280;5778;47.856;12.154;2023-07-13T07:50:35;96533.88;;;20.20;100.00
11444;BME280;5778;47.856;12.154;2023-07-13T07:53:04;96531.44;;;20.54;100.00
11444;BME280;5778;47.856;12.154;2023-07-13T07:55:34;96539.28;;;20.42;100.00
11444;BME280;5778;47.856;12.154;2023-07-13T07:58:01;96535.72;;;19.89;100.00
11444;BME280;5778;47.856;12.154;2023-07-13T08:00:28;96539.84;;;19.73;100.00
11444;BME280;5778;47.856;12.154;2023-07-13T08:02:57;96545.03;;;20.05;100.00
11444;BME280;5778;47.856;12.154;2023-07-13T08:05:24;96550.44;;;20.05;100.00
11444;BME280;5778;47.856;12.154;2023-07-13T08:07:51;96545.56;;;20.07;100.00
11444;BME280;5778;47.856;12.154;2023-07-13T08:13:27;96536.38;;;20.91;100.00
11444;BME280;5778;47.856;12.154;2023-07-13T08:15:54;96530.09;;;21.04;100.00
11444;BME280;5778;47.856;12.154;2023-07-13T08:18:21;96528.22;;;21.21;100.00
11444;BME280;5778;47.856;12.154;2023-07-13T08:20:48;96522.53;;;21.40;100.00
11444;BME280;5778;47.856;12.154;2023-07-13T08:23:15;96519.06;;;21.48;100.00
11444;BME280;5778;47.856;12.154;2023-07-13T08:25:43;96514.06;;;21.16;100.00
11444;BME280;5778;47.856;12.154;2023-07-13T08:28:16;96523.69;;;21.56;100.00
11444;BME280;5778;47.856;12.154;2023-07-13T08:30:45;96529.59;;;21.58;100.00
11444;BME280;5778;47.856;12.154;2023-07-13T08:33:14;96525.88;;;21.28;100.00
11444;BME280;5778;47.856;12.154;2023-07-13T08:35:41;96531.97;;;20.95;100.00
11444;BME280;5778;47.856;12.154;2023-07-13T08:38:08;96528.38;;;21.08;100.00
11444;BME280;5778;47.856;12.154;2023-07-13T08:40:35;96547.41;;;20.94;100.00
11444;BME280;5778;47.856;12.154;2023-07-13T08:43:02;96538.50;;;21.02;100.00
11444;BME280;5778;47.856;12.154;2023-07-13T08:45:33;96547.00;;;21.18;100.00
11444;BME280;5778;47.856;12.154;2023-07-13T08:48:09;96547.34;;;21.16;100.00
11444;BME280;5778;47.856;12.154;2023-07-13T08:50:43;96544.16;;;20.62;100.00
11444;BME280;5778;47.856;12.154;2023-07-13T08:53:14;96548.47;;;20.63;100.00
11444;BME280;5778;47.856;12.154;2023-07-13T08:55:42;96548.03;;;21.00;100.00
11444;BME280;5778;47.856;12.154;2023-07-13T08:58:12;96552.63;;;20.69;100.00
11444;BME280;5778;47.856;12.154;2023-07-13T09:00:49;96549.56;;;20.62;100.00
11444;BME280;5778;47.856;12.154;2023-07-13T09:03:23;96549.94;;;20.69;100.00
11444;BME280;5778;47.856;12.154;2023-07-13T09:05:52;96553.00;;;20.76;100.00
11444;BME280;5778;47.856;12.154;2023-07-13T09:08:34;96552.94;;;20.89;100.00
11444;BME280;5778;47.856;12.154;2023-07-13T09:14:00;96554.47;;;20.82;100.00
11444;BME280;5778;47.856;12.154;2023-07-13T09:16:33;96557.44;;;20.72;100.00
11444;BME280;5778;47.856;12.154;2023-07-13T09:19:06;96553.97;;;20.27;100.00
11444;BME280;5778;47.856;12.154;2023-07-13T09:21:36;96553.19;;;20.27;100.00
11444;BME280;5778;47.856;12.154;2023-07-13T09:24:29;96559.94;;;20.38;100.00
11444;BME280;5778;47.856;12.154;2023-07-13T09:26:58;96562.47;;;20.34;100.00
11444;BME280;5778;47.856;12.154;2023-07-13T09:29:28;96560.47;;;20.26;100.00
11444;BME280;5778;47.856;12.154;2023-07-13T09:31:57;96560.91;;;20.20;100.00
11444;BME280;5778;47.856;12.154;2023-07-13T09:34:27;96559.06;;;20.29;100.00
11444;BME280;5778;47.856;12.154;2023-07-13T09:36:56;96568.44;;;20.53;100.00
11444;BME280;5778;47.856;12.154;2023-07-13T09:39:26;96568.31;;;20.58;100.00
11444;BME280;5778;47.856;12.154;2023-07-13T09:41:59;96554.47;;;20.07;100.00
11444;BME280;5778;47.856;12.154;2023-07-13T09:44:29;96563.63;;;20.06;100.00
11444;BME280;5778;47.856;12.154;2023-07-13T09:46:58;96562.69;;;19.89;100.00
11444;BME280;5778;47.856;12.154;2023-07-13T09:49:29;96566.47;;;19.88;100.00
11444;BME280;5778;47.856;12.154;2023-07-13T09:52:02;96554.94;;;20.09;100.00
11444;BME280;5778;47.856;12.154;2023-07-13T09:54:34;96572.31;;;19.81;100.00
11444;BME280;5778;47.856;12.154;2023-07-13T09:57:03;96573.28;;;19.99;100.00
11444;BME280;5778;47.856;12.154;2023-07-13T09:59:33;96576.88;;;19.94;100.00
11444;BME280;5778;47.856;12.154;2023-07-13T10:02:00;96571.16;;;19.96;100.00
11444;BME280;5778;47.856;12.154;2023-07-13T10:04:32;96569.94;;;19.66;100.00
11444;BME280;5778;47.856;12.154;2023-07-13T10:07:07;96568.91;;;19.76;100.00
11444;BME280;5778;47.856;12.154;2023-07-13T10:09:34;96580.53;;;19.76;100.00
11444;BME280;5778;47.856;12.154;2023-07-13T10:12:01;96591.94;;;19.60;100.00
11444;BME280;5778;47.856;12.154;2023-07-13T10:14:29;96594.78;;;19.77;100.00
11444;BME280;5778;47.856;12.154;2023-07-13T10:17:00;96588.00;;;19.66;100.00
11444;BME280;5778;47.856;12.154;2023-07-13T10:19:32;96593.88;;;19.95;100.00
11444;BME280;5778;47.856;12.154;2023-07-13T10:22:09;96593.19;;;19.76;100.00
11444;BME280;5778;47.856;12.154;2023-07-13T10:24:39;96608.69;;;19.84;100.00
11444;BME280;5778;47.856;12.154;2023-07-13T10:27:12;96614.31;;;19.74;100.00
11444;BME280;5778;47.856;12.154;2023-07-13T10:29:45;96608.00;;;19.65;100.00
11444;BME280;5778;47.856;12.154;2023-07-13T10:32:13;96616.31;;;19.55;100.00
11444;BME280;5778;47.856;12.154;2023-07-13T10:34:45;96616.81;;;19.70;100.00
11444;BME280;5778;47.856;12.154;2023-07-13T10:37:17;96613.69;;;19.63;100.00
11444;BME280;5778;47.856;12.154;2023-07-13T10:39:48;96620.28;;;19.71;100.00
11444;BME280;5778;47.856;12.154;2023-07-13T10:42:25;96631.09;;;19.71;100.00
11444;BME280;5778;47.856;12.154;2023-07-13T10:44:52;96633.31;;;19.69;100.00
11444;BME280;5778;47.856;12.154;2023-07-13T10:47:20;96639.53;;;19.56;100.00
11444;BME280;5778;47.856;12.154;2023-07-13T10:49:53;96638.72;;;19.28;100.00
11444;BME280;5778;47.856;12.154;2023-07-13T10:52:41;96641.25;;;19.20;100.00
11444;BME280;5778;47.856;12.154;2023-07-13T10:55:30;96647.72;;;19.37;100.00
11444;BME280;5778;47.856;12.154;2023-07-13T10:58:00;96643.13;;;19.06;100.00
11444;BME280;5778;47.856;12.154;2023-07-13T11:00:31;96651.69;;;18.81;100.00
11444;BME280;5778;47.856;12.154;2023-07-13T11:02:59;96642.50;;;18.82;100.00
11444;BME280;5778;47.856;12.154;2023-07-13T11:05:32;96652.94;;;19.15;100.00
11444;BME280;5778;47.856;12.154;2023-07-13T11:08:12;96650.63;;;19.09;100.00
11444;BME280;5778;47.856;12.154;2023-07-13T11:10:49;96649.88;;;19.22;100.00
11444;BME280;5778;47.856;12.154;2023-07-13T11:13:56;96650.63;;;18.95;100.00
11444;BME280;5778;47.856;12.154;2023-07-13T11:16:42;96643.44;;;18.59;100.00
11444;BME280;5778;47.856;12.154;2023-07-13T11:19:39;96643.50;;;18.54;100.00
11444;BME280;5778;47.856;12.154;2023-07-13T11:22:14;96647.72;;;19.51;100.00
11444;BME280;5778;47.856;12.154;2023-07-13T11:24:50;96639.41;;;19.74;100.00
11444;BME280;5778;47.856;12.154;2023-07-13T11:27:35;96644.28;;;19.59;100.00
11444;BME280;5778;47.856;12.154;2023-07-13T11:30:22;96638.59;;;19.33;100.00
11444;BME280;5778;47.856;12.154;2023-07-13T11:33:01;96640.00;;;19.44;100.00
11444;BME280;5778;47.856;12.154;2023-07-13T11:35:34;96635.53;;;19.40;100.00
11444;BME280;5778;47.856;12.154;2023-07-13T11:38:13;96632.63;;;19.23;100.00
11444;BME280;5778;47.856;12.154;2023-07-13T11:40:44;96632.25;;;19.11;100.00
11444;BME280;5778;47.856;12.154;2023-07-13T11:43:14;96630.69;;;19.64;100.00
11444;BME280;5778;47.856;12.154;2023-07-13T11:45:42;96616.84;;;20.06;100.00
11444;BME280;5778;47.856;12.154;2023-07-13T11:48:20;96615.31;;;19.78;100.00
11444;BME280;5778;47.856;12.154;2023-07-13T11:50:54;96609.81;;;19.83;100.00
11444;BME280;5778;47.856;12.154;2023-07-13T11:53:28;96605.69;;;19.85;100.00
11444;BME280;5778;47.856;12.154;2023-07-13T11:55:57;96602.97;;;19.99;100.00
11444;BME280;5778;47.856;12.154;2023-07-13T11:58:26;96602.63;;;20.00;100.00
11444;BME280;5778;47.856;12.154;2023-07-13T12:00:55;96590.53;;;19.62;100.00
11444;BME280;5778;47.856;12.154;2023-07-13T12:03:28;96591.41;;;20.42;100.00
11444;BME280;5778;47.856;12.154;2023-07-13T12:06:00;96589.56;;;20.07;100.00
11444;BME280;5778;47.856;12.154;2023-07-13T12:08:29;96595.41;;;20.67;100.00
11444;BME280;5778;47.856;12.154;2023-07-13T12:10:58;96587.72;;;20.38;100.00
11444;BME280;5778;47.856;12.154;2023-07-13T12:13:26;96587.03;;;20.77;100.00
11444;BME280;5778;47.856;12.154;2023-07-13T12:15:53;96576.53;;;21.45;100.00
11444;BME280;5778;47.856;12.154;2023-07-13T12:18:22;96576.16;;;22.02;100.00
11444;BME280;5778;47.856;12.154;2023-07-13T12:20:50;96567.94;;;21.51;100.00
11444;BME280;5778;47.856;12.154;2023-07-13T12:23:22;96576.97;;;21.94;100.00
11444;BME280;5778;47.856;12.154;2023-07-13T12:25:52;96571.69;;;21.72;100.00
11444;BME280;5778;47.856;12.154;2023-07-13T12:28:20;96573.03;;;21.44;100.00
11444;BME280;5778;47.856;12.154;2023-07-13T12:30:48;96574.41;;;21.25;100.00
11444;BME280;5778;47.856;12.154;2023-07-13T12:33:16;96573.78;;;21.92;100.00
11444;BME280;5778;47.856;12.154;2023-07-13T12:35:46;96571.84;;;21.76;100.00
11444;BME280;5778;47.856;12.154;2023-07-13T12:38:13;96563.72;;;22.27;100.00
11444;BME280;5778;47.856;12.154;2023-07-13T12:40:40;96558.13;;;22.74;100.00
11444;BME280;5778;47.856;12.154;2023-07-13T12:43:12;96560.25;;;22.52;100.00
11444;BME280;5778;47.856;12.154;2023-07-13T12:45:54;96571.03;;;21.84;100.00
11444;BME280;5778;47.856;12.154;2023-07-13T12:48:22;96558.81;;;22.20;100.00
11444;BME280;5778;47.856;12.154;2023-07-13T12:50:49;96552.06;;;22.69;100.00
11444;BME280;5778;47.856;12.154;2023-07-13T12:53:19;96562.94;;;23.23;100.00
11444;BME280;5778;47.856;12.154;2023-07-13T12:55:49;96553.25;;;22.97;100.00
11444;BME280;5778;47.856;12.154;2023-07-13T12:58:43;96550.19;;;22.27;100.00
11444;BME280;5778;47.856;12.154;2023-07-13T13:01:12;96549.06;;;23.08;100.00
11444;BME280;5778;47.856;12.154;2023-07-13T13:03:45;96556.75;;;23.43;100.00
11444;BME280;5778;47.856;12.154;2023-07-13T13:06:21;96554.66;;;23.98;100.00
11444;BME280;5778;47.856;12.154;2023-07-13T13:08:50;96563.72;;;24.43;100.00